sensor_id;sensor_type;location;lat;lon;timestamp;P1;durP1;ratioP1;P2;durP2;ratioP2
31482;SDS011;18103;52.246;8.052;2023-02-28T00:00:24;9.75;;;3.83;;
31482;SDS011;18103;52.246;8.052;2023-02-28T00:02:49;8.33;;;3.30;;
31482;SDS011;18103;52.246;8.052;2023-02-28T00:05:16;9.07;;;3.47;;
31482;SDS011;18103;52.246;8.052;2023-02-28T00:07:43;10.75;;;3.17;;
31482;SDS011;18103;52.246;8.052;2023-02-28T00:10:10;6.00;;;3.63;;
31482;SDS011;18103;52.246;8.052;2023-02-28T00:12:37;11.18;;;4.03;;
31482;SDS011;18103;52.246;8.052;2023-02-28T00:15:07;5.25;;;3.28;;
31482;SDS011;18103;52.246;8.052;2023-02-28T00:17:35;10.55;;;3.30;;
31482;SDS011;18103;52.246;8.052;2023-02-28T00:20:01;9.20;;;3.60;;
31482;SDS011;18103;52.246;8.052;2023-02-28T00:22:27;8.63;;;3.20;;
31482;SDS011;18103;52.246;8.052;2023-02-28T00:24:52;8.17;;;3.80;;
31482;SDS011;18103;52.246;8.052;2023-02-28T00:27:18;6.83;;;3.10;;
31482;SDS011;18103;52.246;8.052;2023-02-28T00:29:43;4.97;;;3.27;;
31482;SDS011;18103;52.246;8.052;2023-02-28T00:32:11;5.32;;;2.97;;
31482;SDS011;18103;52.246;8.052;2023-02-28T00:34:36;8.60;;;3.20;;
31482;SDS011;18103;52.246;8.052;2023-02-28T00:37:06;18.35;;;3.70;;
31482;SDS011;18103;52.246;8.052;2023-02-28T00:39:33;4.30;;;2.72;;
31482;SDS011;18103;52.246;8.052;2023-02-28T00:42:00;6.75;;;2.45;;
31482;SDS011;18103;52.246;8.052;2023-02-28T00:44:25;5.53;;;3.10;;
31482;SDS011;18103;52.246;8.052;2023-02-28T00:46:51;6.53;;;2.40;;
31482;SDS011;18103;52.246;8.052;2023-02-28T00:49:18;13.23;;;3.65;;
31482;SDS011;18103;52.246;8.052;2023-02-28T00:51:44;5.93;;;3.73;;
31482;SDS011;18103;52.246;8.052;2023-02-28T00:54:10;5.47;;;2.93;;
31482;SDS011;18103;52.246;8.052;2023-02-28T00:56:35;6.63;;;3.03;;
31482;SDS011;18103;52.246;8.052;2023-02-28T00:59:00;7.00;;;3.17;;
31482;SDS011;18103;52.246;8.052;2023-02-28T01:01:26;7.60;;;4.20;;
31482;SDS011;18103;52.246;8.052;2023-02-28T01:03:51;10.63;;;3.73;;
31482;SDS011;18103;52.246;8.052;2023-02-28T01:06:17;15.30;;;6.23;;
31482;SDS011;18103;52.246;8.052;2023-02-28T01:08:42;11.63;;;5.97;;
31482;SDS011;18103;52.246;8.052;2023-02-28T01:11:09;15.63;;;7.47;;
31482;SDS011;18103;52.246;8.052;2023-02-28T01:13:35;17.42;;;7.22;;
31482;SDS011;18103;52.246;8.052;2023-02-28T01:16:00;15.90;;;7.73;;
31482;SDS011;18103;52.246;8.052;2023-02-28T01:18:26;10.73;;;5.40;;
31482;SDS011;18103;52.246;8.052;2023-02-28T01:20:51;7.50;;;4.17;;
31482;SDS011;18103;52.246;8.052;2023-02-28T01:23:18;9.63;;;4.30;;
31482;SDS011;18103;52.246;8.052;2023-02-28T01:25:45;8.90;;;4.47;;
31482;SDS011;18103;52.246;8.052;2023-02-28T01:28:10;6.40;;;4.23;;
31482;SDS011;18103;52.246;8.052;2023-02-28T01:30:36;10.00;;;4.50;;
31482;SDS011;18103;52.246;8.052;2023-02-28T01:33:01;5.30;;;4.00;;
31482;SDS011;18103;52.246;8.052;2023-02-28T01:35:26;16.60;;;4.53;;
31482;SDS011;18103;52.246;8.052;2023-02-28T01:37:52;11.50;;;4.43;;
31482;SDS011;18103;52.246;8.052;2023-02-28T01:40:18;7.28;;;3.85;;
31482;SDS011;18103;52.246;8.052;2023-02-28T01:42:44;7.90;;;3.90;;
31482;SDS011;18103;52.246;8.052;2023-02-28T01:47:43;5.93;;;3.92;;
31482;SDS011;18103;52.246;8.052;2023-02-28T01:50:14;10.98;;;3.90;;
31482;SDS011;18103;52.246;8.052;2023-02-28T01:52:43;8.40;;;4.05;;
31482;SDS011;18103;52.246;8.052;2023-02-28T01:55:10;13.02;;;4.53;;
31482;SDS011;18103;52.246;8.052;2023-02-28T01:57:39;9.10;;;4.68;;
31482;SDS011;18103;52.246;8.052;2023-02-28T02:00:09;8.75;;;4.63;;
31482;SDS011;18103;52.246;8.052;2023-02-28T02:02:41;7.18;;;4.53;;
31482;SDS011;18103;52.246;8.052;2023-02-28T02:05:15;9.13;;;4.70;;
31482;SDS011;18103;52.246;8.052;2023-02-28T02:07:47;9.55;;;4.63;;
31482;SDS011;18103;52.246;8.052;2023-02-28T02:10:21;6.47;;;3.75;;
31482;SDS011;18103;52.246;8.052;2023-02-28T02:18:26;7.97;;;3.73;;
31482;SDS011;18103;52.246;8.052;2023-02-28T02:21:11;5.80;;;2.90;;
31482;SDS011;18103;52.246;8.052;2023-02-28T02:35:14;7.00;;;3.22;;
31482;SDS011;18103;52.246;8.052;2023-02-28T02:37:54;3.53;;;2.28;;
31482;SDS011;18103;52.246;8.052;2023-02-28T02:40:37;3.67;;;2.13;;
31482;SDS011;18103;52.246;8.052;2023-02-28T02:44:10;7.28;;;2.53;;
31482;SDS011;18103;52.246;8.052;2023-02-28T02:48:56;3.88;;;2.80;;
31482;SDS011;18103;52.246;8.052;2023-02-28T02:51:26;6.35;;;2.55;;
31482;SDS011;18103;52.246;8.052;2023-02-28T02:54:04;7.68;;;2.65;;
31482;SDS011;18103;52.246;8.052;2023-02-28T02:56:42;3.78;;;2.35;;
31482;SDS011;18103;52.246;8.052;2023-02-28T02:59:11;4.13;;;3.05;;
31482;SDS011;18103;52.246;8.052;2023-02-28T03:01:39;6.03;;;3.08;;
31482;SDS011;18103;52.246;8.052;2023-02-28T03:04:10;7.50;;;2.35;;
31482;SDS011;18103;52.246;8.052;2023-02-28T03:06:40;3.30;;;2.35;;
31482;SDS011;18103;52.246;8.052;2023-02-28T03:09:06;7.60;;;2.50;;
31482;SDS011;18103;52.246;8.052;2023-02-28T03:11:31;3.87;;;2.13;;
31482;SDS011;18103;52.246;8.052;2023-02-28T03:16:28;2.23;;;1.97;;
31482;SDS011;18103;52.246;8.052;2023-02-28T03:25:12;3.55;;;2.25;;
31482;SDS011;18103;52.246;8.052;2023-02-28T03:27:39;4.38;;;1.95;;
31482;SDS011;18103;52.246;8.052;2023-02-28T03:30:14;3.80;;;1.95;;
31482;SDS011;18103;52.246;8.052;2023-02-28T03:35:40;4.78;;;2.00;;
31482;SDS011;18103;52.246;8.052;2023-02-28T03:38:14;2.97;;;2.10;;
31482;SDS011;18103;52.246;8.052;2023-02-28T03:40:42;3.45;;;2.13;;
31482;SDS011;18103;52.246;8.052;2023-02-28T03:43:12;2.22;;;1.75;;
31482;SDS011;18103;52.246;8.052;2023-02-28T03:45:45;3.33;;;1.73;;
31482;SDS011;18103;52.246;8.052;2023-02-28T03:48:17;3.15;;;2.47;;
31482;SDS011;18103;52.246;8.052;2023-02-28T03:50:49;5.68;;;3.08;;
31482;SDS011;18103;52.246;8.052;2023-02-28T03:53:33;6.90;;;2.83;;
31482;SDS011;18103;52.246;8.052;2023-02-28T03:56:06;5.03;;;3.17;;
31482;SDS011;18103;52.246;8.052;2023-02-28T03:58:49;3.63;;;2.10;;
31482;SDS011;18103;52.246;8.052;2023-02-28T04:03:57;5.30;;;2.78;;
31482;SDS011;18103;52.246;8.052;2023-02-28T04:06:23;4.63;;;2.40;;
31482;SDS011;18103;52.246;8.052;2023-02-28T04:08:49;5.57;;;2.85;;
31482;SDS011;18103;52.246;8.052;2023-02-28T04:11:35;10.38;;;2.90;;
31482;SDS011;18103;52.246;8.052;2023-02-28T04:14:02;6.65;;;2.47;;
31482;SDS011;18103;52.246;8.052;2023-02-28T04:16:29;4.32;;;1.98;;
31482;SDS011;18103;52.246;8.052;2023-02-28T04:18:55;4.30;;;2.53;;
31482;SDS011;18103;52.246;8.052;2023-02-28T04:21:27;5.90;;;2.78;;
31482;SDS011;18103;52.246;8.052;2023-02-28T04:23:57;6.72;;;2.30;;
31482;SDS011;18103;52.246;8.052;2023-02-28T04:26:36;6.57;;;2.50;;
31482;SDS011;18103;52.246;8.052;2023-02-28T04:29:02;3.85;;;2.22;;
31482;SDS011;18103;52.246;8.052;2023-02-28T04:31:29;3.35;;;2.00;;
31482;SDS011;18103;52.246;8.052;2023-02-28T04:33:55;4.43;;;2.40;;
31482;SDS011;18103;52.246;8.052;2023-02-28T04:36:20;4.13;;;2.67;;
31482;SDS011;18103;52.246;8.052;2023-02-28T04:38:47;7.85;;;2.72;;
31482;SDS011;18103;52.246;8.052;2023-02-28T04:41:13;10.90;;;2.77;;
31482;SDS011;18103;52.246;8.052;2023-02-28T04:43:39;7.23;;;2.13;;
31482;SDS011;18103;52.246;8.052;2023-02-28T04:46:05;3.53;;;2.03;;
31482;SDS011;18103;52.246;8.052;2023-02-28T04:48:32;10.63;;;2.50;;
31482;SDS011;18103;52.246;8.052;2023-02-28T04:51:03;4.20;;;2.35;;
31482;SDS011;18103;52.246;8.052;2023-02-28T04:53:40;3.15;;;1.90;;
31482;SDS011;18103;52.246;8.052;2023-02-28T04:56:06;1.85;;;1.23;;
31482;SDS011;18103;52.246;8.052;2023-02-28T04:58:33;3.95;;;1.67;;
31482;SDS011;18103;52.246;8.052;2023-02-28T05:01:03;9.33;;;2.33;;
31482;SDS011;18103;52.246;8.052;2023-02-28T05:03:40;3.88;;;2.10;;
31482;SDS011;18103;52.246;8.052;2023-02-28T05:06:10;2.22;;;1.60;;
31482;SDS011;18103;52.246;8.052;2023-02-28T05:08:37;4.00;;;2.08;;
31482;SDS011;18103;52.246;8.052;2023-02-28T05:11:05;3.13;;;1.73;;
31482;SDS011;18103;52.246;8.052;2023-02-28T05:13:33;6.57;;;2.38;;
31482;SDS011;18103;52.246;8.052;2023-02-28T05:16:00;4.32;;;2.35;;
31482;SDS011;18103;52.246;8.052;2023-02-28T05:18:26;6.07;;;2.40;;
31482;SDS011;18103;52.246;8.052;2023-02-28T05:20:51;5.60;;;2.37;;
31482;SDS011;18103;52.246;8.052;2023-02-28T05:23:16;3.07;;;1.77;;
31482;SDS011;18103;52.246;8.052;2023-02-28T05:25:44;9.75;;;2.83;;
31482;SDS011;18103;52.246;8.052;2023-02-28T05:28:10;6.57;;;2.80;;
31482;SDS011;18103;52.246;8.052;2023-02-28T05:30:35;2.50;;;1.60;;
31482;SDS011;18103;52.246;8.052;2023-02-28T05:33:00;2.43;;;1.90;;
31482;SDS011;18103;52.246;8.052;2023-02-28T05:35:26;5.47;;;3.00;;
31482;SDS011;18103;52.246;8.052;2023-02-28T05:37:51;2.20;;;2.00;;
31482;SDS011;18103;52.246;8.052;2023-02-28T05:40:17;3.10;;;2.20;;
31482;SDS011;18103;52.246;8.052;2023-02-28T05:42:45;5.70;;;2.78;;
31482;SDS011;18103;52.246;8.052;2023-02-28T05:45:11;9.27;;;3.03;;
31482;SDS011;18103;52.246;8.052;2023-02-28T05:47:36;3.80;;;2.67;;
31482;SDS011;18103;52.246;8.052;2023-02-28T05:50:02;10.47;;;3.03;;
31482;SDS011;18103;52.246;8.052;2023-02-28T05:52:28;5.13;;;2.92;;
31482;SDS011;18103;52.246;8.052;2023-02-28T05:54:55;5.75;;;2.25;;
31482;SDS011;18103;52.246;8.052;2023-02-28T05:57:20;5.37;;;2.53;;
31482;SDS011;18103;52.246;8.052;2023-02-28T05:59:46;4.47;;;2.80;;
31482;SDS011;18103;52.246;8.052;2023-02-28T06:02:12;4.50;;;2.67;;
31482;SDS011;18103;52.246;8.052;2023-02-28T06:04:38;7.00;;;2.47;;
31482;SDS011;18103;52.246;8.052;2023-02-28T06:07:05;3.35;;;2.35;;
31482;SDS011;18103;52.246;8.052;2023-02-28T06:09:31;7.23;;;3.03;;
31482;SDS011;18103;52.246;8.052;2023-02-28T06:11:57;3.63;;;2.83;;
31482;SDS011;18103;52.246;8.052;2023-02-28T06:14:23;4.75;;;2.33;;
31482;SDS011;18103;52.246;8.052;2023-02-28T06:16:49;9.63;;;3.43;;
31482;SDS011;18103;52.246;8.052;2023-02-28T06:19:14;6.40;;;3.37;;
31482;SDS011;18103;52.246;8.052;2023-02-28T06:21:40;10.60;;;3.17;;
31482;SDS011;18103;52.246;8.052;2023-02-28T06:24:06;6.27;;;2.87;;
31482;SDS011;18103;52.246;8.052;2023-02-28T06:26:32;7.40;;;2.95;;
31482;SDS011;18103;52.246;8.052;2023-02-28T06:28:57;5.73;;;3.13;;
31482;SDS011;18103;52.246;8.052;2023-02-28T06:31:23;3.87;;;3.00;;
31482;SDS011;18103;52.246;8.052;2023-02-28T06:33:50;4.70;;;3.03;;
31482;SDS011;18103;52.246;8.052;2023-02-28T06:36:16;10.73;;;3.87;;
31482;SDS011;18103;52.246;8.052;2023-02-28T06:38:42;7.17;;;2.60;;
31482;SDS011;18103;52.246;8.052;2023-02-28T06:41:08;5.65;;;3.20;;
31482;SDS011;18103;52.246;8.052;2023-02-28T06:43:35;9.13;;;3.20;;
31482;SDS011;18103;52.246;8.052;2023-02-28T06:46:04;12.02;;;3.45;;
31482;SDS011;18103;52.246;8.052;2023-02-28T06:48:31;4.70;;;3.42;;
31482;SDS011;18103;52.246;8.052;2023-02-28T06:51:03;13.87;;;3.60;;
31482;SDS011;18103;52.246;8.052;2023-02-28T06:53:34;10.10;;;3.72;;
31482;SDS011;18103;52.246;8.052;2023-02-28T06:56:03;6.87;;;3.10;;
31482;SDS011;18103;52.246;8.052;2023-02-28T06:58:30;16.77;;;3.72;;
31482;SDS011;18103;52.246;8.052;2023-02-28T07:00:55;7.37;;;3.23;;
31482;SDS011;18103;52.246;8.052;2023-02-28T07:03:21;7.30;;;3.87;;
31482;SDS011;18103;52.246;8.052;2023-02-28T07:05:46;6.60;;;3.73;;
31482;SDS011;18103;52.246;8.052;2023-02-28T07:08:12;5.13;;;2.83;;
31482;SDS011;18103;52.246;8.052;2023-02-28T07:10:37;6.83;;;3.90;;
31482;SDS011;18103;52.246;8.052;2023-02-28T07:13:03;9.77;;;3.50;;
31482;SDS011;18103;52.246;8.052;2023-02-28T07:15:29;10.15;;;4.38;;
31482;SDS011;18103;52.246;8.052;2023-02-28T07:17:54;6.23;;;3.57;;
31482;SDS011;18103;52.246;8.052;2023-02-28T07:20:21;12.48;;;4.57;;
31482;SDS011;18103;52.246;8.052;2023-02-28T07:22:47;9.15;;;3.90;;
31482;SDS011;18103;52.246;8.052;2023-02-28T07:25:20;8.10;;;4.03;;
31482;SDS011;18103;52.246;8.052;2023-02-28T07:27:46;6.15;;;3.45;;
31482;SDS011;18103;52.246;8.052;2023-02-28T07:30:11;6.90;;;3.87;;
31482;SDS011;18103;52.246;8.052;2023-02-28T07:32:37;10.00;;;5.25;;
31482;SDS011;18103;52.246;8.052;2023-02-28T07:35:03;8.67;;;4.50;;
31482;SDS011;18103;52.246;8.052;2023-02-28T07:37:29;7.97;;;4.27;;
31482;SDS011;18103;52.246;8.052;2023-02-28T07:39:56;17.35;;;7.18;;
31482;SDS011;18103;52.246;8.052;2023-02-28T07:42:22;16.83;;;6.87;;
31482;SDS011;18103;52.246;8.052;2023-02-28T07:44:47;8.67;;;5.20;;
31482;SDS011;18103;52.246;8.052;2023-02-28T07:47:12;13.67;;;5.40;;
31482;SDS011;18103;52.246;8.052;2023-02-28T07:49:38;14.67;;;5.37;;
31482;SDS011;18103;52.246;8.052;2023-02-28T07:52:04;16.50;;;5.40;;
31482;SDS011;18103;52.246;8.052;2023-02-28T07:54:31;6.70;;;4.50;;
31482;SDS011;18103;52.246;8.052;2023-02-28T07:56:57;11.87;;;4.47;;
31482;SDS011;18103;52.246;8.052;2023-02-28T07:59:22;8.80;;;4.60;;
31482;SDS011;18103;52.246;8.052;2023-02-28T08:01:47;7.57;;;4.37;;
31482;SDS011;18103;52.246;8.052;2023-02-28T08:04:15;12.33;;;4.63;;
31482;SDS011;18103;52.246;8.052;2023-02-28T08:06:41;6.80;;;4.17;;
31482;SDS011;18103;52.246;8.052;2023-02-28T08:09:06;6.50;;;3.70;;
31482;SDS011;18103;52.246;8.052;2023-02-28T08:11:32;7.50;;;4.70;;
31482;SDS011;18103;52.246;8.052;2023-02-28T08:13:57;22.40;;;4.37;;
31482;SDS011;18103;52.246;8.052;2023-02-28T08:16:22;6.77;;;3.60;;
31482;SDS011;18103;52.246;8.052;2023-02-28T08:18:51;7.43;;;4.20;;
31482;SDS011;18103;52.246;8.052;2023-02-28T08:21:17;8.23;;;4.43;;
31482;SDS011;18103;52.246;8.052;2023-02-28T08:23:46;6.33;;;4.03;;
31482;SDS011;18103;52.246;8.052;2023-02-28T08:26:13;6.17;;;4.20;;
31482;SDS011;18103;52.246;8.052;2023-02-28T08:28:38;13.47;;;4.10;;
31482;SDS011;18103;52.246;8.052;2023-02-28T08:31:11;9.67;;;3.77;;
31482;SDS011;18103;52.246;8.052;2023-02-28T08:33:38;6.90;;;3.50;;
31482;SDS011;18103;52.246;8.052;2023-02-28T08:36:05;7.83;;;3.23;;
31482;SDS011;18103;52.246;8.052;2023-02-28T08:38:31;8.57;;;3.03;;
31482;SDS011;18103;52.246;8.052;2023-02-28T08:41:00;4.23;;;2.53;;
31482;SDS011;18103;52.246;8.052;2023-02-28T08:43:27;9.17;;;2.70;;
31482;SDS011;18103;52.246;8.052;2023-02-28T08:45:54;2.87;;;2.40;;
31482;SDS011;18103;52.246;8.052;2023-02-28T08:48:24;5.60;;;2.70;;
31482;SDS011;18103;52.246;8.052;2023-02-28T08:50:54;4.27;;;2.40;;
31482;SDS011;18103;52.246;8.052;2023-02-28T08:53:30;4.73;;;2.10;;
31482;SDS011;18103;52.246;8.052;2023-02-28T08:56:03;7.27;;;2.47;;
31482;SDS011;18103;52.246;8.052;2023-02-28T08:58:33;11.30;;;3.30;;
31482;SDS011;18103;52.246;8.052;2023-02-28T09:00:59;6.40;;;3.20;;
31482;SDS011;18103;52.246;8.052;2023-02-28T09:03:25;5.60;;;3.43;;
31482;SDS011;18103;52.246;8.052;2023-02-28T09:05:55;5.10;;;2.80;;
31482;SDS011;18103;52.246;8.052;2023-02-28T09:08:24;6.43;;;3.43;;
31482;SDS011;18103;52.246;8.052;2023-02-28T09:10:50;5.03;;;2.70;;
31482;SDS011;18103;52.246;8.052;2023-02-28T09:13:16;6.67;;;2.70;;
31482;SDS011;18103;52.246;8.052;2023-02-28T09:15:42;8.50;;;2.80;;
31482;SDS011;18103;52.246;8.052;2023-02-28T09:18:07;5.10;;;2.90;;
31482;SDS011;18103;52.246;8.052;2023-02-28T09:20:33;6.00;;;2.80;;
31482;SDS011;18103;52.246;8.052;2023-02-28T09:22:58;4.60;;;2.53;;
31482;SDS011;18103;52.246;8.052;2023-02-28T09:25:24;3.37;;;2.50;;
31482;SDS011;18103;52.246;8.052;2023-02-28T09:27:49;5.20;;;2.83;;
31482;SDS011;18103;52.246;8.052;2023-02-28T09:30:15;4.67;;;2.30;;
31482;SDS011;18103;52.246;8.052;2023-02-28T09:32:41;4.07;;;2.23;;
31482;SDS011;18103;52.246;8.052;2023-02-28T09:35:06;5.00;;;2.00;;
31482;SDS011;18103;52.246;8.052;2023-02-28T09:37:32;5.27;;;2.03;;
31482;SDS011;18103;52.246;8.052;2023-02-28T09:39:58;2.87;;;1.93;;
31482;SDS011;18103;52.246;8.052;2023-02-28T09:42:25;2.57;;;1.40;;
31482;SDS011;18103;52.246;8.052;2023-02-28T09:44:58;3.73;;;1.70;;
31482;SDS011;18103;52.246;8.052;2023-02-28T09:47:31;3.73;;;1.70;;
31482;SDS011;18103;52.246;8.052;2023-02-28T09:50:03;2.20;;;1.57;;
31482;SDS011;18103;52.246;8.052;2023-02-28T09:52:41;2.07;;;1.17;;
31482;SDS011;18103;52.246;8.052;2023-02-28T09:55:18;2.03;;;1.20;;
31482;SDS011;18103;52.246;8.052;2023-02-28T09:57:53;3.40;;;1.53;;
31482;SDS011;18103;52.246;8.052;2023-02-28T10:03:06;1.93;;;1.40;;
31482;SDS011;18103;52.246;8.052;2023-02-28T10:08:23;1.77;;;1.10;;
31482;SDS011;18103;52.246;8.052;2023-02-28T10:10:57;3.67;;;1.50;;
31482;SDS011;18103;52.246;8.052;2023-02-28T10:19:06;1.87;;;1.13;;
31482;SDS011;18103;52.246;8.052;2023-02-28T10:21:41;3.20;;;1.10;;
31482;SDS011;18103;52.246;8.052;2023-02-28T10:24:32;3.53;;;0.93;;
31482;SDS011;18103;52.246;8.052;2023-02-28T10:27:01;1.20;;;0.90;;
31482;SDS011;18103;52.246;8.052;2023-02-28T10:29:43;1.10;;;1.00;;
31482;SDS011;18103;52.246;8.052;2023-02-28T10:32:10;1.23;;;0.90;;
31482;SDS011;18103;52.246;8.052;2023-02-28T10:34:40;1.73;;;1.17;;
31482;SDS011;18103;52.246;8.052;2023-02-28T10:37:06;3.20;;;1.30;;
31482;SDS011;18103;52.246;8.052;2023-02-28T10:42:18;1.80;;;0.77;;
31482;SDS011;18103;52.246;8.052;2023-02-28T10:45:04;1.80;;;0.83;;
31482;SDS011;18103;52.246;8.052;2023-02-28T10:47:31;1.77;;;1.00;;
31482;SDS011;18103;52.246;8.052;2023-02-28T10:49:59;1.83;;;0.80;;
31482;SDS011;18103;52.246;8.052;2023-02-28T10:52:35;2.40;;;0.90;;
31482;SDS011;18103;52.246;8.052;2023-02-28T10:55:20;0.60;;;0.60;;
31482;SDS011;18103;52.246;8.052;2023-02-28T10:57:48;1.20;;;0.77;;
31482;SDS011;18103;52.246;8.052;2023-02-28T11:00:15;1.97;;;0.90;;
31482;SDS011;18103;52.246;8.052;2023-02-28T11:02:47;1.83;;;0.77;;
31482;SDS011;18103;52.246;8.052;2023-02-28T11:07:59;1.47;;;0.70;;
31482;SDS011;18103;52.246;8.052;2023-02-28T11:10:33;0.87;;;0.77;;
31482;SDS011;18103;52.246;8.052;2023-02-28T11:13:01;0.97;;;0.90;;
31482;SDS011;18103;52.246;8.052;2023-02-28T11:15:29;1.10;;;0.60;;
31482;SDS011;18103;52.246;8.052;2023-02-28T11:20:26;0.83;;;0.70;;
31482;SDS011;18103;52.246;8.052;2023-02-28T11:22:54;2.80;;;0.77;;
31482;SDS011;18103;52.246;8.052;2023-02-28T11:28:03;1.53;;;0.80;;
31482;SDS011;18103;52.246;8.052;2023-02-28T11:30:35;2.47;;;1.07;;
31482;SDS011;18103;52.246;8.052;2023-02-28T11:35:53;1.43;;;0.73;;
31482;SDS011;18103;52.246;8.052;2023-02-28T11:38:25;2.53;;;0.87;;
31482;SDS011;18103;52.246;8.052;2023-02-28T12:05:46;2.10;;;1.10;;
31482;SDS011;18103;52.246;8.052;2023-02-28T12:11:00;3.37;;;0.90;;
31482;SDS011;18103;52.246;8.052;2023-02-28T12:13:48;1.23;;;1.13;;
31482;SDS011;18103;52.246;8.052;2023-02-28T12:16:42;4.17;;;1.43;;
31482;SDS011;18103;52.246;8.052;2023-02-28T12:27:28;1.70;;;0.90;;
31482;SDS011;18103;52.246;8.052;2023-02-28T12:29:58;1.40;;;0.80;;
31482;SDS011;18103;52.246;8.052;2023-02-28T12:32:32;1.20;;;0.83;;
31482;SDS011;18103;52.246;8.052;2023-02-28T12:37:37;0.97;;;0.87;;
31482;SDS011;18103;52.246;8.052;2023-02-28T12:40:11;2.30;;;1.20;;
31482;SDS011;18103;52.246;8.052;2023-02-28T12:42:50;3.37;;;0.83;;
31482;SDS011;18103;52.246;8.052;2023-02-28T12:45:20;2.70;;;1.40;;
31482;SDS011;18103;52.246;8.052;2023-02-28T12:48:00;1.33;;;1.00;;
31482;SDS011;18103;52.246;8.052;2023-02-28T12:50:28;2.73;;;1.73;;
31482;SDS011;18103;52.246;8.052;2023-02-28T12:53:00;3.03;;;1.00;;
31482;SDS011;18103;52.246;8.052;2023-02-28T13:00:53;3.37;;;1.80;;
31482;SDS011;18103;52.246;8.052;2023-02-28T13:06:17;1.87;;;1.00;;
31482;SDS011;18103;52.246;8.052;2023-02-28T13:11:23;1.13;;;1.00;;
31482;SDS011;18103;52.246;8.052;2023-02-28T13:13:58;2.27;;;1.07;;
31482;SDS011;18103;52.246;8.052;2023-02-28T13:16:31;2.30;;;1.20;;
31482;SDS011;18103;52.246;8.052;2023-02-28T13:19:16;2.23;;;1.30;;
31482;SDS011;18103;52.246;8.052;2023-02-28T13:21:46;6.97;;;1.47;;
31482;SDS011;18103;52.246;8.052;2023-02-28T13:24:35;1.93;;;1.40;;
31482;SDS011;18103;52.246;8.052;2023-02-28T13:29:39;3.47;;;1.60;;
31482;SDS011;18103;52.246;8.052;2023-02-28T13:34:36;2.60;;;1.47;;
31482;SDS011;18103;52.246;8.052;2023-02-28T13:39:57;7.67;;;1.97;;
31482;SDS011;18103;52.246;8.052;2023-02-28T13:47:36;2.47;;;1.30;;
31482;SDS011;18103;52.246;8.052;2023-02-28T13:53:01;3.10;;;1.27;;
31482;SDS011;18103;52.246;8.052;2023-02-28T13:58:55;1.77;;;1.13;;
31482;SDS011;18103;52.246;8.052;2023-02-28T14:07:22;2.60;;;0.97;;
31482;SDS011;18103;52.246;8.052;2023-02-28T14:09:56;1.83;;;1.27;;
31482;SDS011;18103;52.246;8.052;2023-02-28T14:15:38;4.87;;;1.40;;
31482;SDS011;18103;52.246;8.052;2023-02-28T14:20:48;4.93;;;1.60;;
31482;SDS011;18103;52.246;8.052;2023-02-28T14:23:39;2.47;;;1.30;;
31482;SDS011;18103;52.246;8.052;2023-02-28T14:29:30;1.40;;;1.27;;
31482;SDS011;18103;52.246;8.052;2023-02-28T14:37:51;4.60;;;0.97;;
31482;SDS011;18103;52.246;8.052;2023-02-28T14:43:00;2.97;;;1.30;;
31482;SDS011;18103;52.246;8.052;2023-02-28T14:45:31;1.33;;;1.00;;
31482;SDS011;18103;52.246;8.052;2023-02-28T14:47:59;1.47;;;1.20;;
31482;SDS011;18103;52.246;8.052;2023-02-28T14:50:27;3.20;;;1.67;;
31482;SDS011;18103;52.246;8.052;2023-02-28T14:52:56;6.03;;;1.27;;
31482;SDS011;18103;52.246;8.052;2023-02-28T14:55:32;2.70;;;1.20;;
31482;SDS011;18103;52.246;8.052;2023-02-28T14:58:04;4.13;;;1.50;;
31482;SDS011;18103;52.246;8.052;2023-02-28T15:00:32;2.17;;;1.30;;
31482;SDS011;18103;52.246;8.052;2023-02-28T15:03:11;2.33;;;1.37;;
31482;SDS011;18103;52.246;8.052;2023-02-28T15:05:50;1.97;;;1.23;;
31482;SDS011;18103;52.246;8.052;2023-02-28T15:08:18;6.20;;;1.60;;
31482;SDS011;18103;52.246;8.052;2023-02-28T15:10:52;4.67;;;1.40;;
31482;SDS011;18103;52.246;8.052;2023-02-28T15:13:20;2.53;;;1.80;;
31482;SDS011;18103;52.246;8.052;2023-02-28T15:15:57;5.27;;;1.70;;
31482;SDS011;18103;52.246;8.052;2023-02-28T15:20:59;2.03;;;1.40;;
31482;SDS011;18103;52.246;8.052;2023-02-28T15:23:28;2.60;;;1.57;;
31482;SDS011;18103;52.246;8.052;2023-02-28T15:25:55;7.67;;;1.60;;
31482;SDS011;18103;52.246;8.052;2023-02-28T15:28:22;3.53;;;1.70;;
31482;SDS011;18103;52.246;8.052;2023-02-28T15:31:17;2.43;;;1.70;;
31482;SDS011;18103;52.246;8.052;2023-02-28T15:33:54;3.43;;;1.50;;
31482;SDS011;18103;52.246;8.052;2023-02-28T15:36:23;5.57;;;1.90;;
31482;SDS011;18103;52.246;8.052;2023-02-28T15:38:53;3.47;;;1.60;;
31482;SDS011;18103;52.246;8.052;2023-02-28T15:41:27;3.37;;;1.53;;
31482;SDS011;18103;52.246;8.052;2023-02-28T15:49:29;8.30;;;1.83;;
31482;SDS011;18103;52.246;8.052;2023-02-28T15:52:01;10.67;;;2.03;;
31482;SDS011;18103;52.246;8.052;2023-02-28T15:54:28;3.57;;;1.70;;
31482;SDS011;18103;52.246;8.052;2023-02-28T15:56:57;3.47;;;1.90;;
31482;SDS011;18103;52.246;8.052;2023-02-28T15:59:27;7.03;;;1.63;;
31482;SDS011;18103;52.246;8.052;2023-02-28T16:02:11;2.30;;;1.73;;
31482;SDS011;18103;52.246;8.052;2023-02-28T16:05:46;2.23;;;1.37;;
31482;SDS011;18103;52.246;8.052;2023-02-28T16:07:46;2.30;;;1.37;;
31482;SDS011;18103;52.246;8.052;2023-02-28T16:10:13;2.10;;;1.20;;
31482;SDS011;18103;52.246;8.052;2023-02-28T16:12:39;1.83;;;1.43;;
31482;SDS011;18103;52.246;8.052;2023-02-28T16:15:06;3.27;;;1.60;;
31482;SDS011;18103;52.246;8.052;2023-02-28T16:17:35;3.17;;;1.50;;
31482;SDS011;18103;52.246;8.052;2023-02-28T16:20:17;2.70;;;1.60;;
31482;SDS011;18103;52.246;8.052;2023-02-28T16:22:48;3.17;;;1.67;;
31482;SDS011;18103;52.246;8.052;2023-02-28T16:25:14;2.70;;;1.83;;
31482;SDS011;18103;52.246;8.052;2023-02-28T16:27:41;2.37;;;1.77;;
31482;SDS011;18103;52.246;8.052;2023-02-28T16:30:15;3.27;;;2.00;;
31482;SDS011;18103;52.246;8.052;2023-02-28T16:32:47;2.30;;;1.43;;
31482;SDS011;18103;52.246;8.052;2023-02-28T16:35:13;4.03;;;2.17;;
31482;SDS011;18103;52.246;8.052;2023-02-28T16:37:39;2.73;;;2.10;;
31482;SDS011;18103;52.246;8.052;2023-02-28T16:40:06;4.47;;;2.20;;
31482;SDS011;18103;52.246;8.052;2023-02-28T16:42:33;2.97;;;1.60;;
31482;SDS011;18103;52.246;8.052;2023-02-28T16:44:58;2.13;;;1.93;;
31482;SDS011;18103;52.246;8.052;2023-02-28T16:47:24;4.93;;;1.70;;
31482;SDS011;18103;52.246;8.052;2023-02-28T16:49:51;3.37;;;1.90;;
31482;SDS011;18103;52.246;8.052;2023-02-28T16:52:17;4.63;;;1.70;;
31482;SDS011;18103;52.246;8.052;2023-02-28T16:54:42;3.40;;;2.00;;
31482;SDS011;18103;52.246;8.052;2023-02-28T16:57:18;6.03;;;2.50;;
31482;SDS011;18103;52.246;8.052;2023-02-28T16:59:48;2.13;;;1.80;;
31482;SDS011;18103;52.246;8.052;2023-02-28T17:02:16;2.40;;;1.60;;
31482;SDS011;18103;52.246;8.052;2023-02-28T17:04:47;1.97;;;1.60;;
31482;SDS011;18103;52.246;8.052;2023-02-28T17:07:13;3.73;;;2.17;;
31482;SDS011;18103;52.246;8.052;2023-02-28T17:09:40;2.73;;;2.30;;
31482;SDS011;18103;52.246;8.052;2023-02-28T17:12:06;6.50;;;2.03;;
31482;SDS011;18103;52.246;8.052;2023-02-28T17:14:32;5.23;;;2.20;;
31482;SDS011;18103;52.246;8.052;2023-02-28T17:16:57;6.37;;;2.40;;
31482;SDS011;18103;52.246;8.052;2023-02-28T17:19:23;2.63;;;2.10;;
31482;SDS011;18103;52.246;8.052;2023-02-28T17:21:48;4.83;;;2.23;;
31482;SDS011;18103;52.246;8.052;2023-02-28T17:24:14;4.57;;;1.50;;
31482;SDS011;18103;52.246;8.052;2023-02-28T17:26:39;3.40;;;1.67;;
31482;SDS011;18103;52.246;8.052;2023-02-28T17:29:13;2.87;;;2.43;;
31482;SDS011;18103;52.246;8.052;2023-02-28T17:31:43;2.27;;;1.60;;
31482;SDS011;18103;52.246;8.052;2023-02-28T17:34:09;3.53;;;1.93;;
31482;SDS011;18103;52.246;8.052;2023-02-28T17:36:34;5.13;;;1.37;;
31482;SDS011;18103;52.246;8.052;2023-02-28T17:39:02;2.97;;;1.80;;